Time;durP1;ratioP1;P1;durP2;ratioP2;P2;SDS_P1;SDS_P2;PMS_P1;PMS_P2;Temp;Humidity;BMP_temperature;BMP_pressure;BME280_temperature;BME280_humidity;BME280_pressure;Samples;Min_cycle;Max_cycle;Signal;HPM_P1;HPM_P2
2022/01/29 00:04:33;;;;;;;63.45;33.17;;;4.80;99.90;;;;;;12598657;28;20044;-37
2022/01/29 00:10:35;;;;;;;60.58;30.02;;;4.80;99.90;;;;;;12601780;28;20051;-37
2022/01/29 00:16:40;;;;;;;56.17;28.85;;;4.90;99.90;;;;;;12593116;28;20048;-41
2022/01/29 00:22:42;;;;;;;59.15;29.15;;;4.90;99.90;;;;;;12593645;28;20567;-36
2022/01/29 00:28:44;;;;;;;57.63;30.60;;;4.90;99.90;;;;;;12595070;28;20077;-39
2022/01/29 00:34:46;;;;;;;61.03;30.48;;;5.00;99.90;;;;;;12599003;28;20138;-36
2022/01/29 00:40:49;;;;;;;62.45;30.15;;;5.00;99.90;;;;;;12596666;28;20047;-38
2022/01/29 00:46:51;;;;;;;60.70;29.67;;;5.00;99.90;;;;;;12596644;28;20149;-36
2022/01/29 00:52:53;;;;;;;57.08;29.40;;;5.00;99.90;;;;;;12596527;28;20365;-36
2022/01/29 00:58:55;;;;;;;60.25;29.42;;;5.00;99.90;;;;;;12594756;28;20055;-38
2022/01/29 01:04:57;;;;;;;61.83;30.30;;;5.00;99.90;;;;;;12595683;28;20049;-36
2022/01/29 01:10:59;;;;;;;64.65;30.90;;;5.00;99.90;;;;;;12606481;28;20074;-37
2022/01/29 01:17:03;;;;;;;59.50;29.77;;;5.10;99.90;;;;;;12603517;28;20070;-40
2022/01/29 01:23:05;;;;;;;54.13;29.77;;;5.10;99.90;;;;;;12603158;28;20083;-40
2022/01/29 01:29:07;;;;;;;60.28;28.85;;;5.10;99.90;;;;;;12601719;28;20044;-36
2022/01/29 01:35:17;;;;;;;51.40;26.25;;;5.10;99.90;;;;;;12582559;28;20127;-43
2022/01/29 01:41:25;;;;;;;56.35;28.08;;;5.10;99.90;;;;;;12602696;28;20091;-40
2022/01/29 01:47:27;;;;;;;59.70;29.17;;;5.10;99.90;;;;;;12587618;28;20189;-40
2022/01/29 01:53:30;;;;;;;51.40;28.85;;;5.10;99.90;;;;;;12599464;28;20163;-36
2022/01/29 01:59:34;;;;;;;49.28;28.17;;;5.20;99.90;;;;;;12603637;28;20468;-40
2022/01/29 02:05:37;;;;;;;56.15;29.23;;;5.10;99.90;;;;;;12600312;28;20091;-40
2022/01/29 02:11:50;;;;;;;52.42;27.25;;;5.20;99.90;;;;;;12603132;28;20655;-40
2022/01/29 02:17:52;;;;;;;47.55;26.70;;;5.20;99.90;;;;;;12606398;28;20064;-39
2022/01/29 02:23:54;;;;;;;52.08;28.13;;;5.20;99.90;;;;;;12600960;28;20123;-36
2022/01/29 02:29:56;;;;;;;48.95;26.30;;;5.20;99.90;;;;;;12601686;28;20400;-40
2022/01/29 02:35:58;;;;;;;55.22;27.05;;;5.20;99.90;;;;;;12597819;28;20044;-36
2022/01/29 02:42:00;;;;;;;53.53;27.52;;;5.10;99.90;;;;;;12605360;28;20048;-40
2022/01/29 02:48:02;;;;;;;54.08;26.42;;;5.10;99.90;;;;;;12601298;28;20055;-36
2022/01/29 02:54:03;;;;;;;58.55;27.80;;;5.10;99.90;;;;;;12581877;28;20052;-37
2022/01/29 03:00:10;;;;;;;50.58;26.63;;;5.00;99.90;;;;;;12602056;28;20044;-36
2022/01/29 03:06:12;;;;;;;59.80;28.70;;;5.00;99.90;;;;;;12590318;28;20099;-39
2022/01/29 03:12:13;;;;;;;57.75;28.83;;;4.90;99.90;;;;;;12591960;28;20052;-39
2022/01/29 03:18:16;;;;;;;55.78;27.88;;;5.00;99.90;;;;;;12592000;28;20604;-40
2022/01/29 03:24:18;;;;;;;57.85;30.08;;;4.90;99.90;;;;;;12599209;28;20143;-41
2022/01/29 03:30:21;;;;;;;59.83;29.63;;;4.90;99.90;;;;;;12597530;28;20056;-40
2022/01/29 03:36:23;;;;;;;57.28;30.00;;;4.90;99.90;;;;;;12596598;28;20591;-36
2022/01/29 03:42:26;;;;;;;51.17;27.98;;;4.90;99.90;;;;;;12598658;28;20040;-37
2022/01/29 03:48:28;;;;;;;59.50;29.80;;;4.90;99.90;;;;;;12597845;28;20143;-36
2022/01/29 03:54:29;;;;;;;59.70;30.70;;;4.90;99.90;;;;;;12580023;28;20048;-36
2022/01/29 04:00:32;;;;;;;65.30;30.25;;;4.90;99.90;;;;;;12577449;28;20055;-38
2022/01/29 04:06:34;;;;;;;68.63;33.67;;;5.00;99.90;;;;;;12561810;28;20413;-39
2022/01/29 04:12:42;;;;;;;70.20;34.33;;;4.90;99.90;;;;;;12598410;28;20125;-37
2022/01/29 04:18:45;;;;;;;68.93;33.72;;;5.00;99.90;;;;;;12597884;28;20048;-36
2022/01/29 04:24:47;;;;;;;75.22;34.30;;;5.00;99.90;;;;;;12586105;28;20082;-37
2022/01/29 04:30:55;;;;;;;80.32;35.42;;;5.00;99.90;;;;;;12595664;28;20090;-41
2022/01/29 04:36:57;;;;;;;74.43;34.08;;;5.00;99.90;;;;;;12581195;28;20047;-36
2022/01/29 04:42:59;;;;;;;67.22;35.05;;;5.10;99.90;;;;;;12576888;28;20650;-37
2022/01/29 04:49:01;;;;;;;72.88;34.45;;;5.10;99.90;;;;;;12587729;28;20063;-41
2022/01/29 04:55:04;;;;;;;65.63;30.42;;;5.10;99.90;;;;;;12591238;28;20048;-40
2022/01/29 05:01:06;;;;;;;61.83;30.85;;;5.10;99.90;;;;;;12588151;28;20049;-36
2022/01/29 05:07:09;;;;;;;54.58;28.83;;;5.20;99.90;;;;;;12592348;28;20047;-40
2022/01/29 05:13:22;;;;;;;57.38;30.23;;;5.20;99.90;;;;;;12595606;28;20071;-36
2022/01/29 05:32:08;;;;;;;50.85;28.60;;;5.30;99.90;;;;;;12585226;28;20062;-41
2022/01/29 05:38:11;;;;;;;58.85;29.25;;;5.30;99.90;;;;;;12588545;28;20048;-40
2022/01/29 05:44:13;;;;;;;56.75;30.10;;;5.30;99.90;;;;;;12578332;28;20048;-40
2022/01/29 05:50:15;;;;;;;60.72;30.88;;;5.40;99.90;;;;;;12575326;28;20053;-40
2022/01/29 05:56:17;;;;;;;57.97;30.63;;;5.40;99.90;;;;;;12600205;28;20556;-40
2022/01/29 06:02:19;;;;;;;59.40;32.38;;;5.40;99.90;;;;;;12600925;28;20522;-37
2022/01/29 06:08:21;;;;;;;61.55;30.50;;;5.40;99.90;;;;;;12583179;28;20052;-40
2022/01/29 06:14:23;;;;;;;54.22;28.88;;;5.50;99.90;;;;;;12589599;28;20044;-37
2022/01/29 06:20:26;;;;;;;51.13;28.00;;;5.50;99.90;;;;;;12596252;28;20098;-40
2022/01/29 06:26:28;;;;;;;53.13;28.42;;;5.50;99.90;;;;;;12600216;28;20127;-40
2022/01/29 06:32:30;;;;;;;50.35;28.73;;;5.60;99.90;;;;;;12599991;28;20052;-40
2022/01/29 06:38:32;;;;;;;50.83;28.70;;;5.70;99.90;;;;;;12593176;28;20083;-40
2022/01/29 06:44:34;;;;;;;45.50;27.33;;;5.70;99.90;;;;;;12597941;28;20093;-37
2022/01/29 06:50:38;;;;;;;43.03;25.45;;;5.70;99.90;;;;;;12592128;28;20064;-41
2022/01/29 06:56:39;;;;;;;39.25;23.25;;;5.70;99.90;;;;;;12601899;28;20773;-41
2022/01/29 07:02:42;;;;;;;36.03;20.95;;;5.80;99.90;;;;;;12594217;28;20402;-42
2022/01/29 07:08:44;;;;;;;42.17;22.83;;;5.80;99.90;;;;;;12589194;28;20492;-37
2022/01/29 07:14:49;;;;;;;42.65;23.25;;;5.80;99.90;;;;;;12599713;28;20059;-36
2022/01/29 07:20:51;;;;;;;45.65;24.52;;;5.80;99.90;;;;;;12588195;28;20049;-37
2022/01/29 07:26:53;;;;;;;46.10;25.20;;;5.90;99.90;;;;;;12597553;28;20160;-40
2022/01/29 07:32:55;;;;;;;46.95;23.83;;;5.90;99.90;;;;;;12571906;28;20108;-37
2022/01/29 07:38:57;;;;;;;49.10;26.55;;;5.90;99.90;;;;;;12599376;28;20445;-40
2022/01/29 07:44:59;;;;;;;45.88;25.48;;;6.00;99.90;;;;;;12618384;22;20532;-88
2022/01/29 07:51:01;;;;;;;47.10;25.73;;;6.00;99.90;;;;;;12481192;28;20724;-85
2022/01/29 07:57:04;;;;;;;51.45;25.00;;;6.00;99.90;;;;;;12483055;28;20073;-84
2022/01/29 08:03:06;;;;;;;55.33;25.70;;;6.00;99.90;;;;;;12485473;28;20049;-84
2022/01/29 08:09:08;;;;;;;57.05;26.42;;;6.10;99.90;;;;;;12484531;28;20057;-84
2022/01/29 08:15:10;;;;;;;58.38;27.42;;;6.10;99.90;;;;;;12484789;28;20037;-84
2022/01/29 08:21:16;;;;;;;52.47;23.05;;;6.10;99.90;;;;;;12484242;28;20049;-86
2022/01/29 08:27:20;;;;;;;53.58;24.30;;;6.20;99.90;;;;;;12473041;28;20517;-87
2022/01/29 08:33:22;;;;;;;47.90;22.37;;;6.30;99.90;;;;;;12469337;28;20045;-86
2022/01/29 08:39:24;;;;;;;49.63;23.63;;;6.40;99.90;;;;;;12469544;28;20052;-84
2022/01/29 08:45:26;;;;;;;50.47;24.58;;;6.40;99.90;;;;;;12458573;28;20084;-82
2022/01/29 08:51:29;;;;;;;47.75;24.02;;;6.40;99.90;;;;;;12470677;28;20052;-84
2022/01/29 08:57:31;;;;;;;45.58;23.02;;;6.50;99.90;;;;;;12469586;28;20522;-83
2022/01/29 09:03:33;;;;;;;47.85;22.48;;;6.50;99.90;;;;;;12481644;28;20472;-85
2022/01/29 09:09:36;;;;;;;47.78;24.48;;;6.50;99.90;;;;;;12468379;28;20396;-82
2022/01/29 09:15:39;;;;;;;41.83;20.85;;;6.50;99.90;;;;;;12484372;28;20438;-86
2022/01/29 09:21:41;;;;;;;40.00;19.55;;;6.50;99.90;;;;;;12467912;28;20045;-85
2022/01/29 09:27:44;;;;;;;42.53;19.70;;;6.60;99.90;;;;;;12483452;28;20612;-86
2022/01/29 09:33:46;;;;;;;37.03;17.52;;;6.60;99.90;;;;;;12487130;28;20467;-85
2022/01/29 09:39:48;;;;;;;37.60;19.08;;;6.60;99.90;;;;;;12502572;28;20528;-84
2022/01/29 09:45:51;;;;;;;40.88;19.17;;;6.70;99.90;;;;;;12498733;28;20480;-85
2022/01/29 09:51:54;;;;;;;41.63;18.85;;;6.70;99.90;;;;;;12479465;28;20049;-86
2022/01/29 09:57:57;;;;;;;35.47;16.88;;;6.70;99.90;;;;;;12487327;28;20053;-83
2022/01/29 10:04:04;;;;;;;34.20;17.58;;;6.80;99.90;;;;;;12478911;28;20136;-85
2022/01/29 10:10:17;;;;;;;32.80;15.93;;;6.90;99.90;;;;;;12484499;28;20049;-83
2022/01/29 10:16:25;;;;;;;30.73;14.83;;;7.00;99.90;;;;;;12500524;28;20046;-85
2022/01/29 10:22:34;;;;;;;27.30;14.50;;;7.10;99.90;;;;;;12493215;28;20402;-85
2022/01/29 10:28:37;;;;;;;27.30;14.43;;;7.20;99.90;;;;;;12475187;28;20393;-86
2022/01/29 10:34:40;;;;;;;27.77;14.32;;;7.30;99.90;;;;;;12480262;28;20097;-86
2022/01/29 10:40:42;;;;;;;25.65;15.23;;;7.30;99.90;;;;;;12488437;28;20056;-87
2022/01/29 10:46:46;;;;;;;27.60;15.32;;;7.30;99.90;;;;;;12483442;28;20090;-85
2022/01/29 10:52:48;;;;;;;24.85;15.15;;;7.30;99.90;;;;;;12490267;28;20133;-85
2022/01/29 10:58:53;;;;;;;27.50;15.95;;;7.30;99.90;;;;;;12481174;28;20117;-87
2022/01/29 11:04:55;;;;;;;28.75;15.82;;;7.40;99.90;;;;;;12484709;28;20493;-85
2022/01/29 11:10:57;;;;;;;26.65;16.13;;;7.30;99.90;;;;;;12491391;28;20505;-85
2022/01/29 11:17:10;;;;;;;32.33;17.95;;;7.30;99.90;;;;;;12484155;28;20049;-87
2022/01/29 11:23:13;;;;;;;29.52;17.27;;;7.40;99.90;;;;;;12475255;28;20037;-84
2022/01/29 11:29:21;;;;;;;27.20;16.48;;;7.40;99.90;;;;;;12473254;28;20416;-85
2022/01/29 11:35:28;;;;;;;26.08;15.70;;;7.50;99.90;;;;;;12479078;28;20045;-85
2022/01/29 11:41:30;;;;;;;24.33;15.52;;;7.50;99.90;;;;;;12473277;28;20387;-86
2022/01/29 11:47:38;;;;;;;21.50;14.63;;;7.60;99.90;;;;;;12475829;28;20104;-86
2022/01/29 11:53:46;;;;;;;22.35;14.30;;;7.60;99.90;;;;;;12472231;28;20060;-88
2022/01/29 11:59:49;;;;;;;25.10;15.45;;;7.60;99.90;;;;;;12483194;28;20485;-86
2022/01/29 12:12:14;;;;;;;21.77;13.88;;;7.80;99.90;;;;;;12481272;28;20064;-84
2022/01/29 12:18:32;;;;;;;17.92;12.20;;;7.90;99.90;;;;;;12472413;28;20056;-84
2022/01/29 12:24:34;;;;;;;15.95;10.95;;;8.00;99.90;;;;;;12472986;28;20509;-84
2022/01/29 12:30:40;;;;;;;17.98;11.82;;;8.00;99.90;;;;;;12477779;28;20059;-86
2022/01/29 12:36:42;;;;;;;13.80;9.60;;;8.10;99.90;;;;;;12470529;28;20447;-85
2022/01/29 12:42:56;;;;;;;15.75;9.88;;;8.20;99.90;;;;;;12476428;28;20053;-85
2022/01/29 12:49:07;;;;;;;13.27;9.43;;;8.30;99.90;;;;;;12510654;28;20709;-83
2022/01/29 12:55:13;;;;;;;15.90;9.63;;;8.40;99.90;;;;;;12534398;28;20076;-89
2022/01/29 13:01:19;;;;;;;15.27;9.75;;;8.50;99.90;;;;;;12532161;28;20583;-90
2022/01/29 13:07:21;;;;;;;13.65;9.80;;;8.50;99.90;;;;;;12531283;28;20136;-84
2022/01/29 13:13:32;;;;;;;13.55;9.50;;;8.60;99.90;;;;;;12524363;28;20132;-83
2022/01/29 13:19:35;;;;;;;17.80;10.45;;;8.60;99.90;;;;;;12529741;28;20045;-84
2022/01/29 13:25:40;;;;;;;16.30;9.93;;;8.60;99.90;;;;;;12522883;28;20053;-84
2022/01/29 13:31:43;;;;;;;;;;;8.70;99.90;;;;;;12521301;28;20049;-83
2022/01/29 13:37:46;;;;;;;13.63;8.75;;;8.70;99.90;;;;;;12515933;28;19931;-86
2022/01/29 13:43:48;;;;;;;13.73;9.38;;;8.80;99.90;;;;;;12519266;28;20048;-83
2022/01/29 13:49:53;;;;;;;11.60;8.43;;;8.80;99.90;;;;;;12519391;28;20138;-85
2022/01/29 13:55:55;;;;;;;15.82;9.10;;;8.90;99.90;;;;;;12528354;28;20090;-86
2022/01/29 14:02:02;;;;;;;14.40;8.68;;;8.90;99.90;;;;;;12537102;28;20139;-83
2022/01/29 14:08:20;;;;;;;12.68;8.30;;;8.90;99.90;;;;;;12539089;28;20075;-88
2022/01/29 14:14:24;;;;;;;12.50;7.88;;;8.90;99.90;;;;;;12558342;28;20075;-86
2022/01/29 14:20:26;;;;;;;11.53;7.20;;;8.90;99.90;;;;;;12552393;28;20069;-84
2022/01/29 14:26:32;;;;;;;13.07;7.55;;;8.90;99.90;;;;;;12541506;28;20486;-83
2022/01/29 14:32:35;;;;;;;11.85;6.90;;;9.00;99.90;;;;;;12549529;28;20048;-84
2022/01/29 14:38:37;;;;;;;11.52;6.18;;;9.10;99.90;;;;;;12535121;28;20151;-85
2022/01/29 14:44:43;;;;;;;12.18;6.85;;;9.00;99.90;;;;;;12531352;28;20049;-85
2022/01/29 14:50:47;;;;;;;11.10;7.25;;;8.80;99.90;;;;;;12537543;28;20052;-83
2022/01/29 14:56:49;;;;;;;13.87;7.57;;;8.70;99.90;;;;;;12542004;28;20052;-83
2022/01/29 15:02:50;;;;;;;14.43;7.47;;;8.70;99.90;;;;;;12539650;28;20131;-84
2022/01/29 15:08:53;;;;;;;10.05;6.45;;;8.70;99.90;;;;;;12557947;28;20049;-85
2022/01/29 15:14:55;;;;;;;10.32;7.03;;;8.70;99.90;;;;;;12564160;28;20044;-86
2022/01/29 15:21:02;;;;;;;10.57;6.90;;;8.80;99.90;;;;;;12541838;28;20049;-83
2022/01/29 15:27:05;;;;;;;8.10;5.65;;;8.80;99.90;;;;;;12543200;28;20131;-85
2022/01/29 15:33:09;;;;;;;12.80;6.63;;;8.80;99.90;;;;;;12550586;28;20045;-84
2022/01/29 15:39:11;;;;;;;9.80;6.60;;;8.80;99.90;;;;;;12538051;28;20060;-83
2022/01/29 15:45:36;;;;;;;8.60;6.10;;;8.80;99.90;;;;;;12548482;28;20109;-84
2022/01/29 15:51:38;;;;;;;7.30;5.30;;;8.90;99.90;;;;;;12552574;28;20055;-86
2022/01/29 15:57:40;;;;;;;6.93;4.82;;;9.00;99.90;;;;;;12537431;28;20049;-84
2022/01/29 16:03:42;;;;;;;8.23;5.05;;;9.10;99.90;;;;;;12552366;28;20049;-85
2022/01/29 16:09:44;;;;;;;7.43;4.57;;;9.10;99.90;;;;;;12532340;28;20053;-83
2022/01/29 16:15:48;;;;;;;7.60;4.40;;;9.20;99.90;;;;;;12539281;28;20140;-84
2022/01/29 16:21:50;;;;;;;6.32;3.40;;;9.30;99.90;;;;;;12536917;28;20045;-86
2022/01/29 16:27:52;;;;;;;6.07;2.85;;;9.40;99.90;;;;;;12539894;28;20048;-85
2022/01/29 16:33:54;;;;;;;7.30;2.60;;;9.50;99.90;;;;;;12538342;28;20514;-84
2022/01/29 16:39:56;;;;;;;4.78;2.13;;;9.60;99.90;;;;;;12540076;28;20433;-82
2022/01/29 16:45:59;;;;;;;6.13;2.63;;;9.60;99.90;;;;;;12551925;28;20152;-83
2022/01/29 16:52:02;;;;;;;3.45;2.08;;;9.70;99.90;;;;;;12548770;28;20052;-86
2022/01/29 16:58:04;;;;;;;6.20;2.15;;;9.70;99.90;;;;;;12553117;28;20052;-86
2022/01/29 17:04:07;;;;;;;7.40;2.17;;;9.70;99.90;;;;;;12525675;28;20040;-82
2022/01/29 17:10:13;;;;;;;8.38;2.53;;;9.60;99.90;;;;;;12556251;28;20056;-85
2022/01/29 17:16:16;;;;;;;7.82;2.25;;;9.40;99.90;;;;;;12538469;28;20135;-86
2022/01/29 17:22:18;;;;;;;8.85;2.90;;;9.50;99.90;;;;;;12561224;28;20048;-85
2022/01/29 17:28:25;;;;;;;5.82;2.13;;;9.60;99.90;;;;;;12544791;28;20622;-85
2022/01/29 17:34:28;;;;;;;8.07;1.70;;;9.40;99.90;;;;;;12557013;28;20051;-86
2022/01/29 17:40:31;;;;;;;8.43;2.13;;;9.50;99.90;;;;;;12541052;28;20041;-85
2022/01/29 17:46:35;;;;;;;7.05;1.50;;;9.70;99.90;;;;;;12550304;28;20406;-83
2022/01/29 17:52:37;;;;;;;14.07;1.85;;;9.60;99.90;;;;;;12557118;28;20052;-83
2022/01/29 17:58:40;;;;;;;12.63;2.70;;;9.40;99.90;;;;;;12561705;28;20550;-85
2022/01/29 18:04:42;;;;;;;12.38;2.08;;;9.20;99.90;;;;;;12545842;28;20519;-88
2022/01/29 18:10:46;;;;;;;17.40;2.40;;;9.20;99.90;;;;;;12554113;28;20109;-86
2022/01/29 18:16:49;;;;;;;15.27;2.33;;;9.20;99.90;;;;;;12561997;28;20052;-88
2022/01/29 18:22:52;;;;;;;12.95;2.13;;;9.00;99.90;;;;;;12524576;28;20093;-84
2022/01/29 18:28:54;;;;;;;14.00;2.30;;;8.80;99.90;;;;;;12584884;28;20119;-84
2022/01/29 18:34:57;;;;;;;14.18;2.40;;;8.80;99.90;;;;;;12557192;28;20079;-85
2022/01/29 18:40:59;;;;;;;15.32;2.50;;;8.80;99.90;;;;;;12532983;28;20443;-83
2022/01/29 18:47:02;;;;;;;19.55;3.08;;;8.60;99.90;;;;;;12531489;28;20056;-83
2022/01/29 18:53:04;;;;;;;17.70;2.70;;;8.30;99.90;;;;;;12541343;28;20045;-83
2022/01/29 18:59:06;;;;;;;13.25;2.90;;;8.20;99.90;;;;;;12555530;28;20127;-83
2022/01/29 19:05:09;;;;;;;17.17;2.42;;;8.40;99.90;;;;;;12544354;28;20103;-83
2022/01/29 19:11:11;;;;;;;18.80;3.17;;;8.50;99.90;;;;;;12531096;28;20052;-83
2022/01/29 19:17:13;;;;;;;17.98;3.17;;;8.50;99.90;;;;;;12560966;28;20512;-86
2022/01/29 19:23:19;;;;;;;19.15;3.22;;;8.60;99.90;;;;;;12541846;28;20037;-84
2022/01/29 19:29:21;;;;;;;19.38;3.08;;;8.60;99.90;;;;;;12546285;28;20190;-84
2022/01/29 19:35:23;;;;;;;18.98;3.20;;;8.50;99.90;;;;;;12532706;28;20044;-83
2022/01/29 19:41:25;;;;;;;18.40;2.92;;;8.50;99.90;;;;;;12548629;28;20142;-84
2022/01/29 19:47:27;;;;;;;15.57;3.17;;;8.50;99.90;;;;;;12555250;28;20511;-86
2022/01/29 19:53:32;;;;;;;16.88;3.42;;;8.40;99.90;;;;;;12547171;28;20066;-84
2022/01/29 19:59:34;;;;;;;16.42;2.72;;;8.50;99.90;;;;;;12536634;28;20083;-86
2022/01/29 20:05:38;;;;;;;18.45;2.80;;;8.30;99.90;;;;;;12539439;28;20063;-83
2022/01/29 20:11:40;;;;;;;17.08;2.75;;;8.40;99.90;;;;;;12541334;28;20048;-84
2022/01/29 20:17:44;;;;;;;23.80;4.15;;;8.40;99.90;;;;;;12540206;28;20041;-84
2022/01/29 20:23:46;;;;;;;18.83;2.58;;;8.30;99.90;;;;;;12545685;28;20532;-84
2022/01/29 20:29:50;;;;;;;16.00;3.22;;;8.30;99.90;;;;;;12566371;28;20059;-83
2022/01/29 20:35:52;;;;;;;19.10;3.35;;;8.20;99.90;;;;;;12534056;28;20053;-84
2022/01/29 20:41:55;;;;;;;13.45;2.78;;;8.20;99.90;;;;;;12566435;28;20040;-84
2022/01/29 20:47:57;;;;;;;17.20;3.20;;;8.20;99.90;;;;;;12548593;28;20719;-85
2022/01/29 20:54:00;;;;;;;20.85;3.10;;;8.10;99.90;;;;;;12554261;28;20048;-84
2022/01/29 21:00:05;;;;;;;20.38;2.72;;;8.00;99.90;;;;;;12547129;28;20170;-86
2022/01/29 21:06:08;;;;;;;16.95;2.63;;;8.00;99.90;;;;;;12535957;28;20071;-84
2022/01/29 21:12:10;;;;;;;12.80;2.28;;;8.00;99.90;;;;;;12539054;28;20056;-86
2022/01/29 21:18:12;;;;;;;14.93;2.42;;;7.90;99.90;;;;;;12562302;28;20104;-84
2022/01/29 21:24:15;;;;;;;16.55;3.15;;;7.90;99.90;;;;;;12540100;28;20075;-84
2022/01/29 21:30:18;;;;;;;14.85;2.35;;;7.90;99.90;;;;;;12566423;28;20087;-84
2022/01/29 21:36:20;;;;;;;23.35;3.35;;;7.80;99.90;;;;;;12562706;28;20041;-82
2022/01/29 21:42:23;;;;;;;13.82;2.20;;;7.80;99.90;;;;;;12548862;28;20097;-82
2022/01/29 21:48:25;;;;;;;9.35;1.60;;;7.70;99.90;;;;;;12544371;28;20048;-88
2022/01/29 21:54:27;;;;;;;10.43;1.45;;;6.50;99.90;;;;;;12540193;28;20049;-83
2022/01/29 22:00:37;;;;;;;6.63;1.42;;;6.00;99.90;;;;;;12543576;28;20076;-85
2022/01/29 22:06:40;;;;;;;13.18;1.65;;;5.90;99.90;;;;;;12546772;28;20441;-82
2022/01/29 22:12:42;;;;;;;7.07;1.50;;;5.90;99.90;;;;;;12547503;28;20046;-83
2022/01/29 22:18:44;;;;;;;14.07;2.00;;;5.90;99.90;;;;;;12539776;28;20086;-82
2022/01/29 22:24:46;;;;;;;12.98;2.15;;;5.90;99.90;;;;;;12556454;28;20129;-86
2022/01/29 22:30:48;;;;;;;13.82;1.88;;;6.00;99.90;;;;;;12547895;28;20037;-83
2022/01/29 22:36:51;;;;;;;16.70;2.20;;;6.00;99.90;;;;;;12557451;28;20117;-83
2022/01/29 22:42:53;;;;;;;15.98;2.08;;;6.10;99.90;;;;;;12546998;28;20096;-83
2022/01/29 22:48:55;;;;;;;16.27;2.40;;;6.00;99.90;;;;;;12538911;28;20202;-83
2022/01/29 22:54:57;;;;;;;18.50;2.60;;;6.10;99.90;;;;;;12543184;28;20135;-82
2022/01/29 23:00:59;;;;;;;14.45;2.80;;;6.10;99.90;;;;;;12562690;28;20052;-86
2022/01/29 23:07:02;;;;;;;18.30;3.25;;;6.30;99.90;;;;;;12552448;28;20135;-86
2022/01/29 23:13:14;;;;;;;19.63;3.42;;;6.20;99.90;;;;;;12541045;28;20037;-84
2022/01/29 23:20:06;;;;;;;20.65;2.65;;;6.20;99.90;;;;;;12540611;28;20083;-85
2022/01/29 23:32:08;;;;;;;14.68;2.50;;;6.30;99.90;;;;;;12558136;28;20073;-82
2022/01/29 23:38:10;;;;;;;19.85;3.10;;;6.30;99.90;;;;;;12534624;28;20171;-82
2022/01/29 23:44:28;;;;;;;14.65;2.60;;;6.20;99.90;;;;;;12556398;28;20048;-83
2022/01/29 23:50:31;;;;;;;10.48;2.42;;;6.20;99.90;;;;;;12555728;28;20045;-85
2022/01/29 23:56:34;;;;;;;19.45;3.13;;;6.00;99.90;;;;;;12562185;28;20068;-81
